Ibapah, Utah
Current Conditions -  °F | °C
As of 5:35 AM on Monday 20 Oct 2014 (Local Time) from KENV Reporting Station
Overcast Overcast  
Wind Chill: 46°   Ceiling: 10000
Heat Index: 46°   Visibility: 10mi
Dew Point: 34°   Wind: 0mph
Humidity: 62%   Direction: NA
Pressure: 30.04"   Gusts: NA
Location:  40.04°N, 113.99°W
Report Text: KENV 201135Z AUTO 00000KT 10SM OVC100 08/01 A3004 RMK AO1
Loading
Personal Weather Stations






























Interactive Weather Map
Tropical Storm Tracking
New forecast layout! Learn more

10-Day Weather Forecast

Advertisements
Track Severe Weather on mobile